createdAt,value
2018-03-28T00:01:29.746Z,31.40
2018-03-28T00:06:33.565Z,33.30
2018-03-28T00:11:37.262Z,31.10
2018-03-28T00:16:42.304Z,29.40
2018-03-28T00:21:46.417Z,31.47
2018-03-28T00:26:50.325Z,29.90
2018-03-28T00:31:55.642Z,31.90
2018-03-28T00:37:01.122Z,32.73
2018-03-28T00:42:07.634Z,31.37
2018-03-28T00:47:10.744Z,32.37
2018-03-28T00:52:16.025Z,31.47
2018-03-28T00:57:20.424Z,31.53
2018-03-28T01:02:24.790Z,31.40
2018-03-28T01:07:29.258Z,31.80
2018-03-28T01:12:34.923Z,33.30
2018-03-28T01:17:38.950Z,31.60
2018-03-28T01:22:42.248Z,31.87
2018-03-28T01:27:46.894Z,32.63
2018-03-28T01:32:48.413Z,33.07
2018-03-28T01:37:49.963Z,32.83
2018-03-28T01:42:51.502Z,34.30
2018-03-28T01:47:53.021Z,31.77
2018-03-28T01:52:54.536Z,33.40
2018-03-28T01:57:56.093Z,34.30
2018-03-28T02:02:57.651Z,33.00
2018-03-28T02:07:59.173Z,34.37
2018-03-28T02:13:00.689Z,34.87
2018-03-28T02:18:02.258Z,33.03
2018-03-28T02:23:03.776Z,33.40
2018-03-28T02:28:05.277Z,33.47
2018-03-28T02:33:06.801Z,31.50
2018-03-28T02:38:08.330Z,31.73
2018-03-28T02:43:09.902Z,34.47
2018-03-28T02:48:11.446Z,32.13
2018-03-28T02:53:12.994Z,32.97
2018-03-28T02:58:14.519Z,32.97
2018-03-28T03:03:16.834Z,32.27
2018-03-28T03:08:18.335Z,32.10
2018-03-28T03:13:19.885Z,30.10
2018-03-28T03:18:21.556Z,29.97
2018-03-28T03:23:23.083Z,30.07
2018-03-28T03:28:25.358Z,29.80
2018-03-28T03:33:27.646Z,30.27
2018-03-28T03:38:29.170Z,30.17
2018-03-28T03:43:30.668Z,27.60
2018-03-28T03:48:32.281Z,28.83
2018-03-28T03:53:33.841Z,28.50
2018-03-28T03:58:35.375Z,28.17
2018-03-28T04:03:37.008Z,29.17
2018-03-28T04:08:38.544Z,32.07
2018-03-28T04:13:40.942Z,29.60
2018-03-28T04:18:42.485Z,29.47
2018-03-28T04:23:44.090Z,26.37
2018-03-28T04:28:45.610Z,24.43
2018-03-28T04:33:47.129Z,24.80
2018-03-28T04:38:48.690Z,26.10
2018-03-28T04:43:50.276Z,24.73
2018-03-28T04:48:52.540Z,22.07
2018-03-28T04:53:54.080Z,22.43
2018-03-28T04:58:55.606Z,22.53
2018-03-28T05:03:57.117Z,21.60
2018-03-28T05:08:58.638Z,21.17
2018-03-28T05:14:00.195Z,17.50
2018-03-28T05:19:01.734Z,16.30
2018-03-28T05:24:10.140Z,14.20
2018-03-28T05:29:11.794Z,12.57
2018-03-28T05:34:13.382Z,12.40
2018-03-28T05:39:21.828Z,10.47
2018-03-28T05:44:24.117Z,11.50
2018-03-28T05:49:25.669Z,10.03
2018-03-28T05:54:27.250Z,9.93
2018-03-28T05:59:29.677Z,8.87
2018-03-28T06:04:31.237Z,7.80
2018-03-28T06:09:32.827Z,7.00
2018-03-28T06:14:34.552Z,8.57
2018-03-28T06:19:37.919Z,7.17
2018-03-28T06:24:39.834Z,6.17
2018-03-28T06:29:41.551Z,6.30
2018-03-28T06:34:43.462Z,6.53
2018-03-28T06:39:45.732Z,8.00
2018-03-28T06:44:49.140Z,6.23
2018-03-28T06:49:55.024Z,6.33
2018-03-28T06:54:59.666Z,7.17
2018-03-28T07:05:47.267Z,6.83
2018-03-28T07:10:48.802Z,6.30
2018-03-28T07:15:50.786Z,6.83
2018-03-28T07:20:53.206Z,6.43
2018-03-28T07:25:54.785Z,5.30
2018-03-28T07:30:57.693Z,6.00
2018-03-28T07:36:02.159Z,5.13
2018-03-28T07:41:06.741Z,6.10
2018-03-28T07:46:13.369Z,6.03
2018-03-28T07:51:18.652Z,5.53
2018-03-28T07:56:24.558Z,5.03
2018-03-28T08:01:26.251Z,6.30
2018-03-28T08:06:27.785Z,5.93
2018-03-28T08:11:29.337Z,6.20
2018-03-28T08:16:30.958Z,6.43
2018-03-28T08:21:32.462Z,6.67
2018-03-28T08:26:34.109Z,7.93
2018-03-28T08:31:35.654Z,7.30
2018-03-28T08:36:37.201Z,7.70
2018-03-28T08:41:38.725Z,7.40
2018-03-28T08:46:41.055Z,7.10
2018-03-28T08:51:42.568Z,7.10
2018-03-28T08:56:44.988Z,7.00
2018-03-28T09:01:46.541Z,6.83
2018-03-28T09:06:48.954Z,7.60
2018-03-28T09:11:50.506Z,7.63
2018-03-28T09:16:52.070Z,7.90
2018-03-28T09:21:53.801Z,9.17
2018-03-28T09:26:55.379Z,8.93
2018-03-28T09:31:56.905Z,8.23
2018-03-28T09:36:58.474Z,8.57
2018-03-28T09:42:00.001Z,7.77
2018-03-28T09:47:02.278Z,7.57
2018-03-28T09:52:03.968Z,8.90
2018-03-28T09:57:05.527Z,8.77
2018-03-28T10:02:09.811Z,8.47
2018-03-28T10:07:11.360Z,8.90
2018-03-28T10:12:12.924Z,8.60
2018-03-28T10:17:14.445Z,9.20
2018-03-28T10:22:16.021Z,9.37
2018-03-28T10:27:18.595Z,7.90
2018-03-28T10:32:20.135Z,8.83
2018-03-28T10:37:21.715Z,8.80
2018-03-28T10:42:23.385Z,7.63
2018-03-28T10:47:25.917Z,8.50
2018-03-28T10:52:28.160Z,8.60
2018-03-28T10:57:29.701Z,8.30
2018-03-28T11:02:38.272Z,8.50
2018-03-28T11:07:39.837Z,9.63
2018-03-28T11:12:41.392Z,9.50
2018-03-28T11:17:42.969Z,9.00
2018-03-28T11:22:44.521Z,7.93
2018-03-28T11:27:46.271Z,7.70
2018-03-28T11:32:47.821Z,7.73
2018-03-28T11:37:50.190Z,8.93
2018-03-28T11:42:51.715Z,8.17
2018-03-28T11:47:53.286Z,9.10
2018-03-28T11:52:54.927Z,11.60
2018-03-28T11:57:56.402Z,11.60
2018-03-28T12:02:57.966Z,10.73
2018-03-28T12:07:59.531Z,11.37
2018-03-28T12:13:01.085Z,9.07
2018-03-28T12:18:03.368Z,8.03
2018-03-28T12:23:05.697Z,7.50
2018-03-28T12:28:07.223Z,8.30
2018-03-28T12:33:09.709Z,9.10
2018-03-28T12:38:19.074Z,6.90
2018-03-28T12:43:20.646Z,7.80
2018-03-28T12:48:22.185Z,7.77
2018-03-28T12:53:23.769Z,8.10
2018-03-28T12:58:25.304Z,7.47
2018-03-28T13:03:26.880Z,8.57
2018-03-28T13:08:28.417Z,8.83
2018-03-28T13:13:30.088Z,7.90
2018-03-28T13:18:31.673Z,6.87
2018-03-28T13:23:33.217Z,7.63
2018-03-28T13:28:34.769Z,8.97
2018-03-28T13:33:36.296Z,8.13
2018-03-28T13:38:38.597Z,7.20
2018-03-28T13:43:40.890Z,8.40
2018-03-28T13:48:43.166Z,7.07
2018-03-28T13:53:45.436Z,7.73
2018-03-28T13:58:46.978Z,8.43
2018-03-28T14:03:48.682Z,7.03
2018-03-28T14:08:50.323Z,6.57
2018-03-28T14:13:51.891Z,7.23
2018-03-28T14:18:53.472Z,8.07
2018-03-28T14:23:55.062Z,7.67
2018-03-28T14:28:57.344Z,8.30
2018-03-28T14:33:58.917Z,7.07
2018-03-28T14:39:01.215Z,7.43
2018-03-28T14:44:03.526Z,6.97
2018-03-28T14:49:05.126Z,7.20
2018-03-28T14:54:06.690Z,8.10
2018-03-28T14:59:08.286Z,6.30
2018-03-28T15:04:09.852Z,6.93
2018-03-28T15:09:11.438Z,8.83
2018-03-28T15:14:13.713Z,7.90
2018-03-28T15:19:16.002Z,7.47
2018-03-28T15:24:18.281Z,7.67
2018-03-28T15:29:19.829Z,7.80
2018-03-28T15:34:21.518Z,7.47
2018-03-28T15:39:23.071Z,8.37
2018-03-28T15:44:24.646Z,8.77
2018-03-28T15:49:26.168Z,8.87
2018-03-28T15:54:27.742Z,8.30
2018-03-28T15:59:29.290Z,10.60
2018-03-28T16:04:30.853Z,13.50
2018-03-28T16:09:32.423Z,12.27
2018-03-28T16:14:33.953Z,13.13
2018-03-28T16:19:35.549Z,14.37
2018-03-28T16:24:37.779Z,18.43
2018-03-28T16:29:39.446Z,16.43
2018-03-28T16:34:41.037Z,16.67
2018-03-28T16:39:42.562Z,16.20
2018-03-28T16:44:44.133Z,16.13
2018-03-28T16:49:45.670Z,17.83
2018-03-28T16:54:47.934Z,17.43
2018-03-28T16:59:49.495Z,17.47
2018-03-28T17:04:58.025Z,16.17
2018-03-28T17:09:59.564Z,17.93
2018-03-28T17:15:01.178Z,17.90
2018-03-28T17:20:02.715Z,18.00
2018-03-28T17:25:04.250Z,17.80
2018-03-28T17:30:05.876Z,18.43
2018-03-28T17:35:07.333Z,19.17
2018-03-28T17:40:08.858Z,18.63
2018-03-28T17:45:10.437Z,18.73
2018-03-28T17:50:11.985Z,18.57
2018-03-28T17:55:13.533Z,19.10
2018-03-28T18:00:15.805Z,18.30
2018-03-28T18:05:17.511Z,19.90
2018-03-28T18:10:19.289Z,19.57
2018-03-28T18:15:20.849Z,19.40
2018-03-28T18:20:22.444Z,19.40
2018-03-28T18:25:23.987Z,16.87
2018-03-28T18:30:25.597Z,17.50
2018-03-28T18:35:27.138Z,15.53
2018-03-28T18:40:28.717Z,12.47
2018-03-28T18:45:31.020Z,13.47
2018-03-28T18:50:32.624Z,12.07
2018-03-28T18:55:34.194Z,10.27
2018-03-28T19:00:36.073Z,14.30
2018-03-28T19:05:38.549Z,10.47
2018-03-28T19:10:40.229Z,11.40
2018-03-28T19:15:41.800Z,10.70
2018-03-28T19:20:43.382Z,10.57
2018-03-28T19:25:45.650Z,9.43
2018-03-28T19:30:48.056Z,10.00
2018-03-28T19:35:50.349Z,10.37
2018-03-28T19:40:52.645Z,12.23
2018-03-28T19:45:54.249Z,15.40
2018-03-28T19:50:55.835Z,10.20
2018-03-28T19:55:57.432Z,10.70
2018-03-28T20:00:59.942Z,9.97
2018-03-28T20:06:01.446Z,11.03
2018-03-28T20:11:02.937Z,10.00
2018-03-28T20:16:05.135Z,10.43
2018-03-28T20:21:07.395Z,11.77
2018-03-28T20:26:08.903Z,8.77
2018-03-28T20:31:17.275Z,7.77
2018-03-28T20:36:18.863Z,7.27
2018-03-28T20:41:20.326Z,7.20
2018-03-28T20:46:21.856Z,6.43
2018-03-28T20:51:23.405Z,3.20
2018-03-28T20:56:24.913Z,3.17
2018-03-28T21:01:26.414Z,2.20
2018-03-28T21:06:28.722Z,2.00
2018-03-28T21:11:30.328Z,2.00
2018-03-28T21:16:31.930Z,2.37
2018-03-28T21:21:33.508Z,2.70
2018-03-28T21:26:35.785Z,2.17
2018-03-28T21:31:37.337Z,2.50
2018-03-28T21:36:38.882Z,2.87
2018-03-28T21:41:40.416Z,3.50
2018-03-28T21:46:42.153Z,2.63
2018-03-28T21:51:45.284Z,2.83
2018-03-28T21:56:46.854Z,3.23
2018-03-28T22:01:49.145Z,3.47
2018-03-28T22:06:51.463Z,3.40
2018-03-28T22:11:52.990Z,4.73
2018-03-28T22:16:55.246Z,3.50
2018-03-28T22:21:56.970Z,4.97
2018-03-28T22:26:58.534Z,4.97
2018-03-28T22:32:00.076Z,4.70
2018-03-28T22:37:02.375Z,5.60
2018-03-28T22:42:04.659Z,4.93
2018-03-28T22:47:06.963Z,4.70
2018-03-28T22:52:08.621Z,5.33
2018-03-28T22:57:10.146Z,5.13
2018-03-28T23:02:11.693Z,5.00
2018-03-28T23:07:13.220Z,5.83
2018-03-28T23:12:15.212Z,5.77
2018-03-28T23:17:16.767Z,6.63
2018-03-28T23:22:37.648Z,5.13
2018-03-28T23:27:39.200Z,5.27
2018-03-28T23:32:40.725Z,6.23
2018-03-28T23:37:43.020Z,7.20
2018-03-28T23:42:44.696Z,6.10
2018-03-28T23:47:46.361Z,5.80
2018-03-28T23:52:47.856Z,5.70
2018-03-28T23:57:49.381Z,4.47
